createdAt,value
2022-10-22T00:01:20.210Z,5.37
2022-10-22T00:03:47.845Z,3.30
2022-10-22T00:06:15.388Z,5.07
2022-10-22T00:08:42.964Z,4.03
2022-10-22T00:11:11.732Z,4.33
2022-10-22T00:13:39.190Z,3.07
2022-10-22T00:16:08.647Z,3.43
2022-10-22T00:18:36.101Z,3.47
2022-10-22T00:21:03.727Z,3.83
2022-10-22T00:23:31.315Z,4.77
2022-10-22T00:25:59.077Z,5.37
2022-10-22T00:28:26.927Z,4.80
2022-10-22T00:30:56.781Z,4.77
2022-10-22T00:33:25.806Z,3.13
2022-10-22T00:35:53.460Z,3.63
2022-10-22T00:38:21.003Z,8.30
2022-10-22T00:40:48.674Z,5.53
2022-10-22T00:43:18.962Z,4.40
2022-10-22T00:45:46.989Z,3.93
2022-10-22T00:48:16.231Z,3.93
2022-10-22T00:50:47.026Z,6.03
2022-10-22T00:53:16.022Z,4.07
2022-10-22T00:55:44.671Z,5.67
2022-10-22T00:58:13.596Z,4.20
2022-10-22T01:00:41.151Z,3.53
2022-10-22T01:03:08.750Z,5.03
2022-10-22T01:05:40.792Z,3.90
2022-10-22T01:10:47.197Z,3.23
2022-10-22T01:13:23.061Z,5.07
2022-10-22T01:15:54.815Z,5.53
2022-10-22T01:18:25.376Z,3.73
2022-10-22T01:20:59.901Z,7.00
2022-10-22T01:23:41.149Z,3.33
2022-10-22T01:26:13.909Z,3.37
2022-10-22T01:28:50.533Z,2.83
2022-10-22T01:31:18.925Z,3.03
2022-10-22T01:33:47.089Z,5.07
2022-10-22T01:36:15.576Z,4.50
2022-10-22T01:38:43.762Z,3.07
2022-10-22T01:41:11.957Z,7.60
2022-10-22T01:43:39.415Z,3.97
2022-10-22T01:46:08.615Z,2.57
2022-10-22T01:48:41.469Z,2.60
2022-10-22T01:51:16.530Z,2.20
2022-10-22T01:53:50.103Z,2.40
2022-10-22T01:56:23.951Z,3.20
2022-10-22T01:58:56.666Z,1.30
2022-10-22T02:01:27.808Z,1.27
2022-10-22T02:03:58.115Z,1.40
2022-10-22T02:06:26.198Z,1.83
2022-10-22T02:08:54.109Z,2.23
2022-10-22T02:11:21.595Z,1.17
2022-10-22T02:13:50.199Z,0.63
2022-10-22T02:16:19.516Z,1.00
2022-10-22T02:18:50.716Z,3.97
2022-10-22T02:21:18.159Z,1.20
2022-10-22T02:23:46.609Z,1.93
2022-10-22T02:26:17.624Z,0.70
2022-10-22T02:28:47.212Z,0.73
2022-10-22T02:31:16.057Z,0.83
2022-10-22T02:33:46.235Z,2.43
2022-10-22T02:36:15.899Z,0.87
2022-10-22T02:38:43.775Z,1.00
2022-10-22T02:41:11.455Z,3.03
2022-10-22T02:43:43.331Z,1.80
2022-10-22T02:46:11.266Z,1.50
2022-10-22T02:48:38.970Z,2.20
2022-10-22T02:51:06.540Z,2.27
2022-10-22T02:53:35.281Z,1.10
2022-10-22T02:56:02.737Z,1.60
2022-10-22T02:58:30.136Z,2.47
2022-10-22T03:00:57.620Z,3.07
2022-10-22T03:03:25.051Z,1.80
2022-10-22T03:05:52.725Z,0.80
2022-10-22T03:08:20.216Z,0.83
2022-10-22T03:10:48.967Z,2.30
2022-10-22T03:13:16.438Z,3.07
2022-10-22T03:15:43.841Z,1.23
2022-10-22T03:18:11.279Z,1.37
2022-10-22T03:20:38.768Z,1.77
2022-10-22T03:23:06.459Z,1.47
2022-10-22T03:25:34.587Z,1.20
2022-10-22T03:28:05.543Z,1.87
2022-10-22T03:30:33.081Z,1.53
2022-10-22T03:33:00.477Z,3.03
2022-10-22T03:35:27.969Z,1.70
2022-10-22T03:37:55.658Z,1.23
2022-10-22T03:40:23.198Z,2.30
2022-10-22T03:42:50.643Z,2.40
2022-10-22T03:45:19.586Z,2.53
2022-10-22T03:47:47.003Z,2.40
2022-10-22T03:50:14.375Z,2.13
2022-10-22T03:52:41.839Z,1.20
2022-10-22T03:55:09.974Z,1.30
2022-10-22T03:57:37.931Z,2.50
2022-10-22T04:00:06.390Z,4.00
2022-10-22T04:02:35.180Z,1.83
2022-10-22T04:05:02.800Z,1.90
2022-10-22T04:07:30.302Z,1.97
2022-10-22T04:09:57.702Z,2.30
2022-10-22T04:12:25.110Z,2.63
2022-10-22T04:14:52.574Z,1.50
2022-10-22T04:17:20.030Z,2.13
2022-10-22T04:19:48.786Z,1.43
2022-10-22T04:22:16.183Z,3.90
2022-10-22T04:24:43.658Z,0.90
2022-10-22T04:27:11.110Z,1.80
2022-10-22T04:29:38.544Z,0.83
2022-10-22T04:32:06.207Z,1.40
2022-10-22T04:34:33.642Z,3.90
2022-10-22T04:37:03.149Z,0.97
2022-10-22T04:39:30.633Z,3.27
2022-10-22T04:41:58.062Z,1.03
2022-10-22T04:44:25.614Z,2.40
2022-10-22T04:46:53.262Z,0.90
2022-10-22T04:49:20.890Z,1.83
2022-10-22T04:51:48.344Z,1.80
2022-10-22T04:54:17.127Z,1.13
2022-10-22T04:56:44.621Z,1.63
2022-10-22T04:59:13.587Z,1.63
2022-10-22T05:01:43.197Z,1.60
2022-10-22T05:04:12.554Z,1.27
2022-10-22T05:06:39.934Z,1.37
2022-10-22T05:09:08.428Z,1.83
2022-10-22T05:11:38.479Z,0.53
2022-10-22T05:14:07.758Z,0.87
2022-10-22T05:16:35.517Z,3.37
2022-10-22T05:19:03.499Z,1.63
2022-10-22T05:21:30.874Z,2.97
2022-10-22T05:23:59.764Z,4.17
2022-10-22T05:26:27.940Z,2.13
2022-10-22T05:28:57.152Z,1.33
2022-10-22T05:31:24.779Z,0.67
2022-10-22T05:33:52.163Z,1.17
2022-10-22T05:36:20.871Z,1.43
2022-10-22T05:38:48.492Z,5.03
2022-10-22T05:41:17.516Z,3.33
2022-10-22T05:43:45.003Z,3.73
2022-10-22T05:46:17.560Z,1.97
2022-10-22T05:48:49.661Z,5.20
2022-10-22T05:51:17.332Z,2.93
2022-10-22T05:53:45.227Z,1.07
2022-10-22T05:56:13.656Z,2.03
2022-10-22T05:58:41.099Z,2.33
2022-10-22T06:01:09.411Z,1.53
2022-10-22T06:03:38.216Z,3.77
2022-10-22T06:06:08.327Z,3.50
2022-10-22T06:08:35.871Z,2.80
2022-10-22T06:11:03.306Z,1.93
2022-10-22T06:13:32.734Z,1.87
2022-10-22T06:16:00.163Z,2.47
2022-10-22T06:18:27.676Z,1.00
2022-10-22T06:20:56.427Z,2.27
2022-10-22T06:23:23.891Z,1.23
2022-10-22T06:26:00.767Z,2.47
2022-10-22T06:28:28.278Z,2.37
2022-10-22T06:30:55.739Z,2.97
2022-10-22T06:33:23.186Z,1.60
2022-10-22T06:35:50.620Z,2.70
2022-10-22T06:38:19.466Z,1.57
2022-10-22T06:40:46.922Z,1.77
2022-10-22T06:43:14.682Z,2.20
2022-10-22T06:45:42.168Z,2.50
2022-10-22T06:48:09.566Z,1.27
2022-10-22T06:50:36.997Z,3.07
2022-10-22T06:53:04.440Z,1.43
2022-10-22T06:55:33.227Z,1.87
2022-10-22T06:58:00.940Z,2.17
2022-10-22T07:00:28.397Z,1.53
2022-10-22T07:02:59.031Z,4.47
2022-10-22T07:05:27.383Z,2.40
2022-10-22T07:07:54.817Z,1.47
2022-10-22T07:10:26.038Z,3.10
2022-10-22T07:12:58.723Z,3.83
2022-10-22T07:15:26.335Z,3.90
2022-10-22T07:17:54.201Z,2.30
2022-10-22T07:20:21.738Z,1.30
2022-10-22T07:22:49.183Z,1.90
2022-10-22T07:25:16.825Z,1.43
2022-10-22T07:27:44.374Z,1.97
2022-10-22T07:30:13.592Z,2.30
2022-10-22T07:32:40.979Z,2.33
2022-10-22T07:35:08.696Z,2.00
2022-10-22T07:37:36.291Z,2.40
2022-10-22T07:40:04.233Z,1.07
2022-10-22T07:42:31.793Z,1.10
2022-10-22T07:44:59.208Z,1.17
2022-10-22T07:47:27.986Z,2.13
2022-10-22T07:49:55.471Z,2.93
2022-10-22T07:52:22.877Z,1.10
2022-10-22T07:54:50.397Z,2.40
2022-10-22T07:57:17.896Z,2.60
2022-10-22T07:59:45.592Z,4.50
2022-10-22T08:02:13.248Z,2.20
2022-10-22T08:04:42.328Z,4.03
2022-10-22T08:07:09.744Z,1.67
2022-10-22T08:09:37.183Z,3.43
2022-10-22T08:12:04.842Z,1.87
2022-10-22T08:14:32.317Z,2.10
2022-10-22T08:16:59.728Z,1.90
2022-10-22T08:19:28.655Z,3.23
2022-10-22T08:21:57.438Z,1.63
2022-10-22T08:24:26.895Z,3.23
2022-10-22T08:26:55.755Z,1.93
2022-10-22T08:29:23.382Z,2.00
2022-10-22T08:31:50.939Z,1.10
2022-10-22T08:34:18.383Z,0.80
2022-10-22T08:36:45.895Z,2.30
2022-10-22T08:39:15.047Z,1.53
2022-10-22T08:41:45.233Z,1.00
2022-10-22T08:44:33.591Z,0.70
2022-10-22T08:47:18.709Z,0.63
2022-10-22T08:49:49.048Z,0.97
2022-10-22T08:52:17.998Z,1.57
2022-10-22T08:54:50.450Z,1.90
2022-10-22T08:57:23.733Z,2.13
2022-10-22T08:59:54.069Z,1.23
2022-10-22T09:02:26.810Z,0.95
2022-10-22T09:04:56.869Z,1.65
2022-10-22T09:07:25.103Z,0.88
2022-10-22T09:09:55.084Z,0.40
2022-10-22T09:12:23.462Z,1.17
2022-10-22T09:14:51.248Z,1.83
2022-10-22T09:17:22.241Z,1.20
2022-10-22T09:19:56.175Z,0.70
2022-10-22T09:22:28.288Z,1.80
2022-10-22T09:24:59.791Z,0.90
2022-10-22T09:27:28.720Z,3.03
2022-10-22T09:29:56.265Z,1.40
2022-10-22T09:32:24.068Z,1.33
2022-10-22T09:34:52.122Z,0.47
2022-10-22T09:37:21.259Z,7.63
2022-10-22T09:39:52.791Z,3.17
2022-10-22T09:42:25.730Z,1.00
2022-10-22T09:44:54.455Z,0.70
2022-10-22T09:47:42.866Z,0.43
2022-10-22T09:50:22.603Z,0.82
2022-10-22T09:53:00.407Z,1.98
2022-10-22T09:55:28.790Z,2.20
2022-10-22T09:57:59.805Z,0.75
2022-10-22T10:00:28.757Z,2.58
2022-10-22T10:02:57.529Z,0.60
2022-10-22T10:05:29.702Z,0.82
2022-10-22T10:07:58.233Z,0.75
2022-10-22T10:10:43.876Z,1.13
2022-10-22T10:13:23.016Z,1.13
2022-10-22T10:15:55.611Z,2.13
2022-10-22T10:18:31.573Z,0.52
2022-10-22T10:21:04.710Z,1.02
2022-10-22T10:23:35.082Z,1.60
2022-10-22T10:26:05.966Z,2.58
2022-10-22T10:28:38.791Z,2.58
2022-10-22T10:31:10.780Z,1.55
2022-10-22T10:33:41.596Z,2.20
2022-10-22T10:36:13.402Z,1.23
2022-10-22T10:38:46.105Z,1.08
2022-10-22T10:41:18.885Z,0.93
2022-10-22T10:43:56.787Z,1.48
2022-10-22T10:46:26.599Z,1.20
2022-10-22T10:48:56.567Z,4.10
2022-10-22T10:51:36.495Z,0.85
2022-10-22T10:54:17.360Z,0.43
2022-10-22T10:56:46.690Z,2.22
2022-10-22T10:59:28.094Z,0.90
2022-10-22T11:02:00.663Z,3.00
2022-10-22T11:04:39.556Z,1.55
2022-10-22T11:07:11.327Z,1.33
2022-10-22T11:09:54.640Z,0.73
2022-10-22T11:12:24.899Z,1.30
2022-10-22T11:14:58.964Z,1.05
2022-10-22T11:17:27.956Z,3.03
2022-10-22T11:20:00.201Z,0.65
2022-10-22T11:22:30.610Z,2.05
2022-10-22T11:25:00.430Z,2.42
2022-10-22T11:27:30.971Z,0.47
2022-10-22T11:30:03.097Z,1.48
2022-10-22T11:32:31.954Z,0.65
2022-10-22T11:35:02.046Z,0.70
2022-10-22T11:37:34.561Z,1.65
2022-10-22T11:40:05.118Z,1.55
2022-10-22T11:42:35.159Z,0.45
2022-10-22T11:45:05.558Z,1.00
2022-10-22T11:47:34.230Z,2.80
2022-10-22T11:50:17.400Z,1.70
2022-10-22T11:52:50.200Z,1.83
2022-10-22T11:55:31.216Z,0.50
2022-10-22T11:58:00.559Z,0.38
2022-10-22T12:00:40.765Z,0.65
2022-10-22T12:03:17.043Z,1.20
2022-10-22T12:05:45.021Z,2.65
2022-10-22T12:08:17.526Z,0.45
2022-10-22T12:11:00.067Z,1.05
2022-10-22T12:13:28.729Z,1.35
2022-10-22T12:15:59.787Z,1.30
2022-10-22T12:18:28.606Z,0.30
2022-10-22T12:20:56.190Z,0.93
2022-10-22T12:23:27.963Z,0.20
2022-10-22T12:25:55.428Z,0.32
2022-10-22T12:28:23.143Z,2.03
2022-10-22T12:30:50.663Z,0.65
2022-10-22T12:33:21.856Z,2.13
2022-10-22T12:35:52.828Z,4.22
2022-10-22T12:38:21.214Z,1.08
2022-10-22T12:40:50.230Z,0.80
2022-10-22T12:43:19.214Z,0.65
2022-10-22T12:45:47.830Z,0.98
2022-10-22T12:48:16.794Z,1.60
2022-10-22T12:50:46.992Z,1.33
2022-10-22T12:53:15.848Z,1.77
2022-10-22T12:55:46.335Z,1.20
2022-10-22T12:58:17.450Z,0.70
2022-10-22T13:00:46.179Z,2.28
2022-10-22T13:03:21.679Z,0.73
2022-10-22T13:05:51.685Z,3.78
2022-10-22T13:08:22.411Z,2.13
2022-10-22T13:10:51.669Z,2.33
2022-10-22T13:13:31.458Z,0.30
2022-10-22T13:16:13.585Z,0.85
2022-10-22T13:18:41.274Z,0.88
2022-10-22T13:21:24.239Z,2.60
2022-10-22T13:23:55.774Z,0.40
2022-10-22T13:26:23.928Z,1.52
2022-10-22T13:28:52.042Z,0.47
2022-10-22T13:31:20.997Z,1.38
2022-10-22T13:33:52.631Z,0.90
2022-10-22T13:36:20.523Z,0.43
2022-10-22T13:38:49.537Z,2.47
2022-10-22T13:41:20.756Z,1.13
2022-10-22T13:43:48.416Z,0.30
2022-10-22T13:46:16.052Z,0.88
2022-10-22T13:48:44.088Z,1.30
2022-10-22T13:51:14.776Z,1.40
2022-10-22T13:53:42.459Z,1.25
2022-10-22T13:56:13.908Z,3.33
2022-10-22T13:58:41.504Z,0.63
2022-10-22T14:01:13.931Z,0.90
2022-10-22T14:03:41.553Z,1.08
2022-10-22T14:06:12.986Z,1.10
2022-10-22T14:08:40.569Z,1.63
2022-10-22T14:11:09.873Z,1.52
2022-10-22T14:13:38.811Z,0.35
2022-10-22T14:16:07.951Z,0.30
2022-10-22T14:18:35.980Z,2.42
2022-10-22T14:21:07.349Z,1.67
2022-10-22T14:23:35.901Z,0.45
2022-10-22T14:26:04.350Z,2.17
2022-10-22T14:28:41.030Z,0.32
2022-10-22T14:31:15.680Z,1.20
2022-10-22T14:33:43.240Z,1.23
2022-10-22T14:36:12.515Z,1.13
2022-10-22T14:38:40.009Z,0.35
2022-10-22T14:41:15.738Z,0.55
2022-10-22T14:43:43.303Z,1.05
2022-10-22T14:46:12.274Z,0.98
2022-10-22T14:48:41.393Z,0.88
2022-10-22T14:51:12.844Z,1.15
2022-10-22T14:53:40.329Z,2.08
2022-10-22T14:56:07.908Z,0.98
2022-10-22T14:58:35.393Z,0.75
2022-10-22T15:01:03.318Z,0.95
2022-10-22T15:03:31.497Z,1.20
2022-10-22T15:06:00.542Z,0.50
2022-10-22T15:08:28.324Z,1.67
2022-10-22T15:10:59.862Z,0.60
2022-10-22T15:13:27.665Z,0.50
2022-10-22T15:15:55.194Z,0.85
2022-10-22T15:18:23.363Z,1.15
2022-10-22T15:20:57.746Z,1.27
2022-10-22T15:23:27.509Z,3.15
2022-10-22T15:25:55.709Z,0.85
2022-10-22T15:28:23.454Z,1.15
2022-10-22T15:30:57.466Z,0.88
2022-10-22T15:33:25.413Z,0.50
2022-10-22T15:35:53.230Z,2.65
2022-10-22T15:38:20.812Z,4.40
2022-10-22T15:40:49.713Z,3.70
2022-10-22T15:43:17.229Z,2.53
2022-10-22T15:45:44.761Z,4.18
2022-10-22T15:48:14.795Z,2.90
2022-10-22T15:50:43.036Z,1.35
2022-10-22T15:53:11.368Z,1.58
2022-10-22T15:55:38.870Z,2.40
2022-10-22T15:58:07.687Z,2.10
2022-10-22T16:00:35.313Z,2.13
2022-10-22T16:03:02.886Z,1.85
2022-10-22T16:05:31.073Z,0.80
2022-10-22T16:07:58.577Z,0.95
2022-10-22T16:10:28.085Z,0.68
2022-10-22T16:12:57.234Z,2.85
2022-10-22T16:15:26.066Z,2.13
2022-10-22T16:17:53.564Z,1.77
2022-10-22T16:20:21.135Z,2.60
2022-10-22T16:22:50.541Z,1.55
2022-10-22T16:25:18.226Z,4.32
2022-10-22T16:27:45.770Z,4.88
2022-10-22T16:30:14.074Z,2.15
2022-10-22T16:32:43.187Z,5.43
2022-10-22T16:35:11.010Z,1.97
2022-10-22T16:37:41.360Z,2.43
2022-10-22T16:40:10.572Z,1.93
2022-10-22T16:42:38.028Z,3.57
2022-10-22T16:45:05.970Z,3.20
2022-10-22T16:47:33.528Z,18.87
2022-10-22T16:50:02.325Z,7.90
2022-10-22T16:52:29.831Z,3.83
2022-10-22T16:54:58.116Z,14.80
2022-10-22T16:57:25.748Z,7.37
2022-10-22T16:59:53.336Z,5.87
2022-10-22T17:02:20.827Z,2.10
2022-10-22T17:04:48.373Z,2.30
2022-10-22T17:07:17.187Z,1.77
2022-10-22T17:09:44.714Z,3.33
2022-10-22T17:12:12.244Z,1.20
2022-10-22T17:14:39.743Z,3.70
2022-10-22T17:17:07.185Z,2.73
2022-10-22T17:19:38.679Z,2.50
2022-10-22T17:22:06.291Z,2.67
2022-10-22T17:24:35.546Z,1.10
2022-10-22T17:29:36.788Z,3.63
2022-10-22T17:32:04.525Z,2.27
2022-10-22T17:34:33.267Z,4.40
2022-10-22T17:37:00.999Z,3.60
2022-10-22T17:39:28.481Z,1.83
2022-10-22T17:41:57.376Z,3.27
2022-10-22T17:44:24.942Z,5.30
2022-10-22T17:46:52.445Z,2.97
2022-10-22T17:49:20.667Z,3.40
2022-10-22T17:51:48.707Z,2.17
2022-10-22T17:54:16.593Z,2.70
2022-10-22T17:56:44.143Z,4.53
2022-10-22T17:59:14.549Z,2.67
2022-10-22T18:01:45.914Z,1.93
2022-10-22T18:04:15.445Z,3.03
2022-10-22T18:06:43.500Z,3.20
2022-10-22T18:09:17.306Z,5.40
2022-10-22T18:11:46.552Z,4.63
2022-10-22T18:14:15.768Z,4.33
2022-10-22T18:16:43.282Z,3.17
2022-10-22T18:19:11.626Z,2.50
2022-10-22T18:21:39.236Z,5.57
2022-10-22T18:24:07.255Z,3.80
2022-10-22T18:26:34.817Z,5.87
2022-10-22T18:29:02.852Z,4.53
2022-10-22T18:31:31.775Z,4.03
2022-10-22T18:33:59.494Z,4.00
2022-10-22T18:36:27.724Z,6.60
2022-10-22T18:38:56.396Z,3.77
2022-10-22T18:41:23.880Z,4.43
2022-10-22T18:43:52.860Z,5.17
2022-10-22T18:46:20.512Z,3.90
2022-10-22T18:48:49.416Z,7.10
2022-10-22T18:51:19.266Z,11.53
2022-10-22T18:53:59.054Z,9.40
2022-10-22T18:56:33.362Z,9.23
2022-10-22T18:59:00.904Z,6.67
2022-10-22T19:01:30.147Z,5.57
2022-10-22T19:03:59.041Z,5.77
2022-10-22T19:06:30.504Z,6.03
2022-10-22T19:08:59.724Z,7.97
2022-10-22T19:11:27.795Z,10.30
2022-10-22T19:13:55.568Z,9.20
2022-10-22T19:16:24.547Z,9.23
2022-10-22T19:18:52.921Z,6.87
2022-10-22T19:21:22.516Z,5.07
2022-10-22T19:23:50.385Z,3.93
2022-10-22T19:26:19.155Z,6.60
2022-10-22T19:28:46.973Z,4.47
2022-10-22T19:31:18.164Z,4.87
2022-10-22T19:33:46.271Z,6.77
2022-10-22T19:36:14.403Z,6.40
2022-10-22T19:38:44.619Z,5.83
2022-10-22T19:41:15.633Z,4.10
2022-10-22T19:43:44.159Z,3.90
2022-10-22T19:46:12.211Z,6.50
2022-10-22T19:48:40.311Z,4.07
2022-10-22T19:51:09.484Z,6.30
2022-10-22T19:53:38.232Z,3.50
2022-10-22T19:56:09.078Z,5.77
2022-10-22T19:58:37.004Z,4.27
2022-10-22T20:01:05.436Z,5.60
2022-10-22T20:03:33.839Z,5.83
2022-10-22T20:06:01.596Z,5.27
2022-10-22T20:08:31.100Z,4.20
2022-10-22T20:11:01.046Z,3.50
2022-10-22T20:13:30.135Z,3.73
2022-10-22T20:15:59.145Z,3.67
2022-10-22T20:18:26.967Z,3.60
2022-10-22T20:20:54.895Z,4.90
2022-10-22T20:23:22.543Z,5.23
2022-10-22T20:25:50.112Z,4.57
2022-10-22T20:28:18.008Z,5.57
2022-10-22T20:30:47.552Z,5.37
2022-10-22T20:33:15.898Z,4.23
2022-10-22T20:35:44.835Z,9.23
2022-10-22T20:38:15.953Z,4.87
2022-10-22T20:40:43.529Z,6.10
2022-10-22T20:43:12.379Z,4.60
2022-10-22T20:45:42.217Z,8.23
2022-10-22T20:48:11.201Z,4.67
2022-10-22T20:50:38.891Z,5.07
2022-10-22T20:53:06.500Z,8.20
2022-10-22T20:55:34.564Z,4.43
2022-10-22T20:58:02.279Z,3.87
2022-10-22T21:00:35.641Z,6.80
2022-10-22T21:03:03.200Z,5.00
2022-10-22T21:05:35.017Z,6.67
2022-10-22T21:08:04.866Z,4.43
2022-10-22T21:10:32.803Z,4.50
2022-10-22T21:13:00.970Z,7.90
2022-10-22T21:15:29.137Z,7.03
2022-10-22T21:17:57.005Z,4.03
2022-10-22T21:20:24.946Z,6.50
2022-10-22T21:22:55.430Z,7.40
2022-10-22T21:25:22.963Z,3.00
2022-10-22T21:27:50.528Z,4.33
2022-10-22T21:30:19.150Z,4.67
2022-10-22T21:32:46.743Z,6.17
2022-10-22T21:35:14.313Z,4.00
2022-10-22T21:37:42.192Z,5.27
2022-10-22T21:40:12.584Z,8.13
2022-10-22T21:42:40.122Z,5.17
2022-10-22T21:45:12.183Z,4.63
2022-10-22T21:47:42.576Z,5.20
2022-10-22T21:50:10.636Z,3.97
2022-10-22T21:52:38.415Z,4.87
2022-10-22T21:55:06.382Z,4.87
2022-10-22T21:57:35.452Z,6.57
2022-10-22T22:00:03.725Z,5.63
2022-10-22T22:02:32.759Z,3.27
2022-10-22T22:05:00.590Z,3.67
2022-10-22T22:07:28.242Z,8.73
2022-10-22T22:09:55.730Z,6.87
2022-10-22T22:12:23.283Z,4.23
2022-10-22T22:14:52.085Z,4.80
2022-10-22T22:17:19.620Z,7.37
2022-10-22T22:19:47.071Z,5.07
2022-10-22T22:22:14.934Z,4.27
2022-10-22T22:24:42.483Z,5.63
2022-10-22T22:27:10.153Z,6.03
2022-10-22T22:29:37.845Z,5.40
2022-10-22T22:32:06.998Z,5.13
2022-10-22T22:34:34.500Z,6.03
2022-10-22T22:37:01.943Z,4.43
2022-10-22T22:39:29.500Z,6.37
2022-10-22T22:41:56.999Z,5.20
2022-10-22T22:44:24.597Z,8.43
2022-10-22T22:46:52.141Z,5.50
2022-10-22T22:49:21.203Z,7.20
2022-10-22T22:51:49.922Z,5.67
2022-10-22T22:54:17.386Z,4.63
2022-10-22T22:56:44.889Z,6.13
2022-10-22T22:59:12.628Z,7.70
2022-10-22T23:01:40.244Z,6.90
2022-10-22T23:04:08.717Z,6.27
2022-10-22T23:06:38.311Z,7.00
2022-10-22T23:09:06.243Z,4.67
2022-10-22T23:11:33.907Z,7.43
2022-10-22T23:14:02.130Z,5.53
2022-10-22T23:16:30.503Z,8.03
2022-10-22T23:18:58.855Z,4.40
2022-10-22T23:21:27.216Z,7.03
2022-10-22T23:23:57.240Z,7.10
2022-10-22T23:26:26.053Z,5.77
2022-10-22T23:28:53.714Z,6.60
2022-10-22T23:31:21.730Z,5.43
2022-10-22T23:33:49.705Z,5.50
2022-10-22T23:36:17.323Z,7.07
2022-10-22T23:38:44.932Z,5.80
2022-10-22T23:41:13.844Z,4.00
2022-10-22T23:43:41.357Z,5.23
2022-10-22T23:46:09.530Z,6.93
2022-10-22T23:48:37.498Z,6.33
2022-10-22T23:51:05.432Z,7.17
2022-10-22T23:53:32.995Z,8.70
2022-10-22T23:56:04.558Z,6.63
2022-10-22T23:58:33.852Z,6.43
